Time;durP1;ratioP1;P1;durP2;ratioP2;P2;SDS_P1;SDS_P2;PMS_P1;PMS_P2;Temp;Humidity;BMP_temperature;BMP_pressure;BME280_temperature;BME280_humidity;BME280_pressure;Samples;Min_cycle;Max_cycle;Signal;HPM_P1;HPM_P2
2022/12/26 00:00:37;;;;;;;10.10;5.27;;;;;;;9.60;78.11;95531.75;5034483;28;20707;-82
2022/12/26 00:03:02;;;;;;;18.43;7.57;;;;;;;9.56;78.49;95530.41;5046635;28;20228;-82
2022/12/26 00:05:28;;;;;;;13.27;6.10;;;;;;;9.52;78.04;95529.03;5050171;28;20189;-82
2022/12/26 00:07:53;;;;;;;7.37;4.13;;;;;;;9.50;79.13;95538.75;5051640;28;20209;-82
2022/12/26 00:10:18;;;;;;;23.73;9.90;;;;;;;9.48;78.90;95528.53;5050709;28;20228;-83
2022/12/26 00:12:44;;;;;;;4.13;3.30;;;;;;;9.51;78.67;95535.19;5051537;28;20229;-82
2022/12/26 00:15:09;;;;;;;9.47;5.50;;;;;;;9.48;79.34;95522.53;5033911;28;20239;-82
2022/12/26 00:17:35;;;;;;;3.97;2.83;;;;;;;9.55;78.79;95524.41;5035831;28;20240;-81
2022/12/26 00:20:00;;;;;;;24.43;10.97;;;;;;;9.53;79.29;95522.91;5048608;28;20228;-82
2022/12/26 00:22:25;;;;;;;5.97;3.67;;;;;;;9.46;79.49;95527.84;5034015;28;20201;-82
2022/12/26 00:24:50;;;;;;;5.53;3.20;;;;;;;9.53;78.40;95526.31;5050417;28;20732;-82
2022/12/26 00:27:16;;;;;;;6.03;3.30;;;;;;;9.53;78.44;95531.50;5054596;28;20280;-83
2022/12/26 00:29:41;;;;;;;5.73;3.90;;;;;;;9.43;79.34;95529.88;5056199;28;20182;-82
2022/12/26 00:32:06;;;;;;;5.60;3.20;;;;;;;9.48;79.14;95530.28;5038177;28;20224;-82
2022/12/26 00:34:32;;;;;;;7.13;3.73;;;;;;;9.51;78.94;95527.41;5053909;28;20181;-83
2022/12/26 00:36:57;;;;;;;3.93;3.27;;;;;;;9.42;79.22;95518.72;5053805;28;20209;-83
2022/12/26 00:39:22;;;;;;;6.50;3.83;;;;;;;9.43;78.87;95515.16;5054703;28;20193;-83
2022/12/26 00:41:47;;;;;;;4.07;3.00;;;;;;;9.35;79.20;95515.03;5054611;28;20182;-83
2022/12/26 00:44:13;;;;;;;4.00;3.10;;;;;;;9.34;79.34;95516.00;5054948;28;20516;-83
2022/12/26 00:46:38;;;;;;;3.60;3.30;;;;;;;9.27;80.04;95515.72;5048901;28;20283;-83
2022/12/26 00:49:03;;;;;;;3.40;3.10;;;;;;;9.21;80.21;95531.88;5058009;28;20744;-83
2022/12/26 00:51:29;;;;;;;4.50;3.43;;;;;;;9.12;80.80;95527.50;5054544;28;20193;-83
2022/12/26 00:53:54;;;;;;;3.17;2.80;;;;;;;9.09;80.97;95517.41;5058264;28;20266;-83
2022/12/26 00:56:20;;;;;;;6.20;3.30;;;;;;;9.09;81.50;95513.03;5048399;28;20668;-82
2022/12/26 00:58:45;;;;;;;5.33;3.20;;;;;;;9.01;81.49;95525.06;5041793;28;20196;-82
2022/12/26 01:01:17;;;;;;;4.63;3.63;;;;;;;9.07;81.51;95527.09;5058624;28;20186;-82
2022/12/26 01:03:43;;;;;;;3.90;2.83;;;;;;;9.02;80.97;95526.72;5055896;28;20316;-83
2022/12/26 01:06:09;;;;;;;4.00;3.27;;;;;;;8.95;82.12;95521.28;5051999;28;20198;-83
2022/12/26 01:08:34;;;;;;;4.73;2.87;;;;;;;8.99;82.48;95520.03;5039432;28;20222;-82
2022/12/26 01:11:08;;;;;;;3.43;3.10;;;;;;;9.00;82.04;95523.44;5041468;28;20201;-83
2022/12/26 01:13:33;;;;;;;3.70;3.30;;;;;;;8.93;82.33;95519.78;5056328;28;20190;-82
2022/12/26 01:15:59;;;;;;;4.47;3.50;;;;;;;8.90;82.59;95515.66;5059300;28;20774;-83
2022/12/26 01:18:24;;;;;;;4.07;2.87;;;;;;;8.91;82.31;95509.53;5043569;28;20642;-83
2022/12/26 01:20:49;;;;;;;3.87;3.00;;;;;;;8.97;82.35;95509.00;5050023;28;20656;-82
2022/12/26 01:23:16;;;;;;;3.53;2.90;;;;;;;8.97;82.33;95500.41;5059823;28;20236;-83
2022/12/26 01:25:41;;;;;;;3.47;2.90;;;;;;;8.94;82.23;95509.28;5041951;28;20661;-83
2022/12/26 01:28:06;;;;;;;3.30;3.03;;;;;;;8.86;82.66;95514.31;5039962;28;20190;-83
2022/12/26 01:30:32;;;;;;;5.67;3.83;;;;;;;8.94;82.93;95518.81;5059441;28;20186;-83
2022/12/26 01:32:57;;;;;;;3.43;2.87;;;;;;;9.02;82.53;95526.72;5042666;28;20202;-83
2022/12/26 01:35:23;;;;;;;3.13;2.50;;;;;;;8.99;82.14;95526.97;5054928;28;20236;-82
2022/12/26 01:37:48;;;;;;;4.07;2.90;;;;;;;8.95;82.64;95523.84;5042001;28;20296;-83
2022/12/26 01:40:13;;;;;;;4.33;3.10;;;;;;;8.89;83.12;95533.94;5042306;28;20193;-83
2022/12/26 01:42:40;;;;;;;4.47;3.27;;;;;;;8.91;83.23;95526.84;5040944;28;20196;-82
2022/12/26 01:45:20;;;;;;;4.30;3.00;;;;;;;8.87;83.30;95523.72;5053304;28;20261;-83
2022/12/26 01:47:47;;;;;;;4.87;3.70;;;;;;;8.94;83.34;95536.94;5072993;28;20308;-83
2022/12/26 01:50:25;;;;;;;3.43;2.80;;;;;;;8.92;83.61;95537.09;5059733;28;20583;-83
2022/12/26 01:52:51;;;;;;;3.07;2.80;;;;;;;8.91;83.61;95538.03;5058777;28;20826;-83
2022/12/26 01:55:17;;;;;;;3.77;2.87;;;;;;;8.91;83.51;95532.84;5039668;28;20709;-83
2022/12/26 01:57:45;;;;;;;3.60;3.03;;;;;;;8.90;83.16;95533.78;5041983;28;20236;-82
2022/12/26 02:00:11;;;;;;;4.80;3.53;;;;;;;8.91;83.52;95529.44;5041787;28;20185;-83
2022/12/26 02:05:32;;;;;;;4.30;2.83;;;;;;;8.90;83.23;95530.38;5041387;28;20966;-83
2022/12/26 02:05:35;;;;;;;3.97;2.80;;;;;;;8.83;83.82;95534.47;5058300;28;20198;-83
2022/12/26 02:08:08;;;;;;;3.97;3.13;;;;;;;8.83;83.78;95531.88;5056427;28;20513;-83
2022/12/26 02:10:38;;;;;;;5.13;3.37;;;;;;;8.74;84.18;95526.56;5040935;28;20217;-83
2022/12/26 02:13:03;;;;;;;5.77;3.10;;;;;;;8.72;84.50;95533.66;5050401;28;20190;-82
2022/12/26 02:15:29;;;;;;;5.77;3.50;;;;;;;8.79;84.26;95532.16;5053091;28;20193;-83
2022/12/26 02:17:54;;;;;;;4.93;3.40;;;;;;;8.75;84.86;95525.66;5058109;28;20206;-82
2022/12/26 02:20:28;;;;;;;5.00;3.00;;;;;;;8.73;85.13;95526.72;5040397;28;20201;-83
2022/12/26 02:22:56;;;;;;;6.70;3.80;;;;;;;8.72;84.36;95541.44;5059141;28;20185;-82
2022/12/26 02:25:37;;;;;;;5.13;3.80;;;;;;;8.78;84.27;95547.84;5071785;28;20197;-82
2022/12/26 02:28:23;;;;;;;4.33;3.13;;;;;;;8.82;84.45;95550.97;5055428;28;20195;-83
2022/12/26 02:31:06;;;;;;;27.10;10.27;;;;;;;8.85;84.25;95546.34;5056069;28;20319;-83
2022/12/26 02:33:53;;;;;;;9.47;4.07;;;;;;;8.97;83.38;95545.25;5039535;28;20799;-83
2022/12/26 02:36:34;;;;;;;9.17;4.80;;;;;;;9.00;83.43;95533.78;5056360;28;20280;-83
2022/12/26 02:39:25;;;;;;;5.30;3.27;;;;;;;9.00;83.25;95544.97;5039392;28;20217;-82
2022/12/26 02:42:17;;;;;;;7.27;3.90;;;;;;;8.92;83.66;95544.84;5057326;28;20185;-83
2022/12/26 02:47:43;;;;;;;9.10;4.70;;;;;;;9.12;82.43;95548.25;5056210;28;20217;-82
2022/12/26 03:13:37;;;;;;;6.03;3.63;;;;;;;9.97;77.52;95531.72;5055965;28;20176;-81
2022/12/26 03:18:57;;;;;;;8.93;4.77;;;;;;;10.12;76.67;95526.88;5055758;28;20189;-83
2022/12/26 03:21:25;;;;;;;14.60;6.90;;;;;;;10.16;76.88;95518.66;5039406;28;20323;-82
2022/12/26 03:23:52;;;;;;;13.70;6.77;;;;;;;10.25;76.23;95516.16;5038824;28;20332;-84
2022/12/26 03:26:39;;;;;;;10.83;7.93;;;;;;;10.23;76.41;95523.28;5038377;28;20201;-84
2022/12/26 03:31:50;;;;;;;2.50;2.30;;;;;;;10.17;76.45;95506.50;5055259;28;20189;-84
2022/12/26 03:34:16;;;;;;;3.80;2.40;;;;;;;10.12;76.44;95498.34;5040013;28;20182;-83
2022/12/26 03:37:02;;;;;;;3.27;2.00;;;;;;;10.06;76.52;95507.50;5055590;28;20227;-84
2022/12/26 04:19:22;;;;;;;6.83;3.50;;;;;;;10.06;76.86;95506.69;5057074;28;20184;-83
2022/12/26 04:20:36;;;;;;;5.00;2.40;;;;;;;10.79;76.82;95523.03;5057494;28;20270;-84
2022/12/26 04:46:23;;;;;;;1.80;1.70;;;;;;;11.05;74.19;95513.50;5022181;28;20224;-84
2022/12/26 04:51:34;;;;;;;2.27;2.00;;;;;;;10.71;74.92;95513.41;5020821;28;20244;-83
2022/12/26 04:53:59;;;;;;;3.50;2.10;;;;;;;10.65;75.08;95528.75;5020715;28;20191;-84
2022/12/26 04:56:24;;;;;;;3.60;2.30;;;;;;;10.27;76.32;95520.28;5019645;28;20241;-83
2022/12/26 04:58:50;;;;;;;2.33;2.10;;;;;;;10.17;76.95;95530.69;5020458;28;20276;-84
2022/12/26 05:09:33;;;;;;;1.97;1.50;;;;;;;10.27;80.66;95530.66;5025054;28;20196;-84
2022/12/26 05:12:01;;;;;;;4.83;2.13;;;;;;;10.56;79.35;95530.44;5043415;28;20206;-84
2022/12/26 05:14:28;;;;;;;2.20;2.00;;;;;;;10.62;79.23;95529.88;5059944;28;20182;-84
2022/12/26 05:30:42;;;;;;;2.60;1.60;;;;;;;10.88;77.88;95539.50;5057189;28;20305;-83
2022/12/26 05:35:52;;;;;;;3.23;2.20;;;;;;;10.85;78.34;95569.19;5058769;28;20247;-83
2022/12/26 05:38:17;;;;;;;4.33;1.70;;;;;;;10.95;78.05;95564.72;5059470;28;20186;-83
2022/12/26 05:40:42;;;;;;;3.23;2.33;;;;;;;10.96;78.28;95550.78;5041943;28;20576;-83
2022/12/26 05:43:08;;;;;;;2.73;1.90;;;;;;;10.94;78.50;95544.09;5042337;28;20202;-83
2022/12/26 05:45:33;;;;;;;3.03;2.20;;;;;;;11.03;78.21;95538.81;5041962;28;20227;-82
2022/12/26 05:47:59;;;;;;;2.60;2.30;;;;;;;10.96;78.48;95542.19;5058750;28;20627;-82
2022/12/26 05:50:24;;;;;;;3.00;2.40;;;;;;;10.74;79.35;95548.63;5058416;28;20186;-83
2022/12/26 05:52:50;;;;;;;2.40;2.00;;;;;;;10.85;78.88;95545.81;5060305;28;20561;-83
2022/12/26 05:55:15;;;;;;;3.17;1.80;;;;;;;10.90;78.76;95545.38;5057069;28;20235;-83
2022/12/26 05:57:40;;;;;;;2.90;1.90;;;;;;;10.75;79.15;95537.28;5057854;28;20209;-83
2022/12/26 06:00:06;;;;;;;4.93;2.27;;;;;;;10.94;78.21;95537.13;5041245;28;20676;-84
2022/12/26 06:02:31;;;;;;;4.47;2.40;;;;;;;10.91;78.35;95537.41;5041279;28;20201;-83
2022/12/26 06:04:57;;;;;;;4.53;1.93;;;;;;;10.78;78.90;95524.00;5057572;28;20200;-83
2022/12/26 06:07:22;;;;;;;3.50;2.00;;;;;;;10.85;78.29;95524.22;5041643;28;20209;-83
2022/12/26 06:09:47;;;;;;;2.60;2.23;;;;;;;10.91;78.56;95531.41;5038419;28;20197;-83
2022/12/26 06:12:13;;;;;;;4.37;2.20;;;;;;;10.88;78.58;95540.34;5056952;28;20673;-83
2022/12/26 06:14:38;;;;;;;3.07;2.10;;;;;;;10.85;78.40;95534.59;5038453;28;20197;-83
2022/12/26 06:17:03;;;;;;;3.97;2.80;;;;;;;10.82;78.52;95527.94;5054043;28;20210;-83
2022/12/26 06:19:28;;;;;;;2.43;2.20;;;;;;;10.87;78.13;95528.31;5055218;28;20216;-83
2022/12/26 06:21:54;;;;;;;3.43;2.10;;;;;;;10.83;78.08;95532.16;5038762;28;20213;-84
2022/12/26 06:24:19;;;;;;;3.80;2.20;;;;;;;10.83;77.97;95524.38;5054789;28;20209;-83
2022/12/26 06:26:44;;;;;;;4.13;2.33;;;;;;;10.72;78.61;95530.59;5037542;28;20240;-82
2022/12/26 06:29:10;;;;;;;3.60;2.40;;;;;;;10.65;78.94;95521.78;5040191;28;20193;-83
2022/12/26 06:31:35;;;;;;;3.23;2.93;;;;;;;10.62;79.69;95516.88;5039775;28;20186;-83
2022/12/26 06:34:00;;;;;;;3.47;2.17;;;;;;;10.61;79.76;95532.63;5055312;28;20249;-83
2022/12/26 06:36:27;;;;;;;3.60;2.50;;;;;;;10.56;79.97;95519.25;5056276;28;20696;-83
2022/12/26 06:38:53;;;;;;;3.60;2.87;;;;;;;10.51;80.28;95522.28;5030199;28;20189;-83
2022/12/26 06:41:20;;;;;;;2.87;2.63;;;;;;;10.49;79.77;95517.22;5056081;28;20182;-83
2022/12/26 06:43:46;;;;;;;3.23;2.43;;;;;;;10.37;80.32;95535.78;5054022;28;20326;-83
2022/12/26 06:46:15;;;;;;;4.40;2.80;;;;;;;10.27;80.46;95546.22;5055463;28;20650;-83
2022/12/26 06:48:40;;;;;;;4.07;2.70;;;;;;;10.24;80.41;95541.31;5042337;28;20242;-82
2022/12/26 06:51:09;;;;;;;3.10;2.40;;;;;;;10.12;80.69;95545.03;5036590;28;20674;-83
2022/12/26 06:53:34;;;;;;;3.27;2.83;;;;;;;9.99;81.63;95547.16;5032280;28;20184;-82
2022/12/26 06:56:09;;;;;;;4.07;3.00;;;;;;;9.98;82.15;95553.28;5032681;28;20689;-83
2022/12/26 06:58:35;;;;;;;3.67;2.67;;;;;;;9.86;82.83;95558.66;5052958;28;20223;-83
2022/12/26 07:01:09;;;;;;;4.57;2.93;;;;;;;9.85;83.21;95567.41;5044775;28;20265;-82
2022/12/26 07:03:35;;;;;;;3.13;2.83;;;;;;;9.78;83.82;95566.34;5048297;28;20896;-83
2022/12/26 07:06:10;;;;;;;4.17;2.90;;;;;;;9.79;84.46;95565.38;5037690;28;20209;-83
2022/12/26 07:08:36;;;;;;;5.93;3.50;;;;;;;9.73;85.86;95558.19;5039179;28;20200;-82
2022/12/26 07:11:01;;;;;;;3.80;3.07;;;;;;;9.78;86.29;95558.56;5054343;28;20186;-83
2022/12/26 07:13:26;;;;;;;3.20;2.77;;;;;;;9.69;87.86;95550.81;5039422;28;20224;-83
2022/12/26 07:15:52;;;;;;;4.10;3.37;;;;;;;9.77;88.17;95559.53;5054021;28;20263;-83
2022/12/26 07:18:18;;;;;;;4.20;2.40;;;;;;;9.78;89.52;95562.94;5039500;28;20661;-82
2022/12/26 07:20:43;;;;;;;4.33;2.30;;;;;;;9.84;90.78;95555.41;5039495;28;20201;-82
2022/12/26 07:23:08;;;;;;;5.20;2.70;;;;;;;9.93;91.49;95558.94;5039423;28;20576;-83
2022/12/26 07:25:36;;;;;;;2.77;2.30;;;;;;;10.03;91.40;95558.88;5038397;28;20675;-83
2022/12/26 07:28:01;;;;;;;4.40;2.80;;;;;;;10.13;91.71;95560.47;5055825;28;20208;-83
2022/12/26 07:30:26;;;;;;;4.17;3.20;;;;;;;10.14;92.02;95551.72;5057115;28;20190;-83
2022/12/26 07:32:51;;;;;;;3.90;2.77;;;;;;;10.23;91.80;95544.06;5038948;28;20654;-83
2022/12/26 07:35:18;;;;;;;3.57;2.50;;;;;;;10.17;92.74;95548.03;5037736;28;20185;-83
2022/12/26 07:37:43;;;;;;;4.70;2.70;;;;;;;10.32;92.30;95556.97;5038522;28;20209;-82
2022/12/26 07:40:09;;;;;;;2.90;2.40;;;;;;;10.36;92.34;95563.53;5038658;28;20200;-83
2022/12/26 07:42:34;;;;;;;3.00;2.53;;;;;;;10.31;92.36;95557.94;5038774;28;20182;-83
2022/12/26 07:44:59;;;;;;;4.40;2.70;;;;;;;10.43;91.81;95561.97;5054829;28;20216;-83
2022/12/26 07:47:25;;;;;;;5.97;2.80;;;;;;;10.42;91.53;95557.75;5055064;28;20210;-83
2022/12/26 07:49:50;;;;;;;5.70;2.80;;;;;;;10.37;92.06;95559.97;5035971;28;20237;-83
2022/12/26 07:52:15;;;;;;;3.70;2.83;;;;;;;10.45;91.69;95567.84;5037886;28;20185;-83
2022/12/26 07:54:40;;;;;;;3.17;2.80;;;;;;;10.51;91.36;95569.00;5038430;28;20185;-83
2022/12/26 07:57:06;;;;;;;3.70;2.70;;;;;;;10.45;92.56;95582.59;5039489;28;20287;-83
2022/12/26 07:59:31;;;;;;;7.33;3.43;;;;;;;10.50;92.18;95585.56;5055347;28;20228;-83
2022/12/26 08:01:58;;;;;;;3.87;2.90;;;;;;;10.52;91.72;95590.63;5054621;28;20181;-83
2022/12/26 08:04:23;;;;;;;5.47;2.97;;;;;;;10.50;91.80;95590.75;5055705;28;20221;-83
2022/12/26 08:06:50;;;;;;;4.53;3.20;;;;;;;10.47;92.61;95589.28;5053938;28;20236;-83
2022/12/26 08:09:15;;;;;;;2.67;2.30;;;;;;;10.47;92.37;95589.28;5038152;28;20197;-83
2022/12/26 08:11:41;;;;;;;4.50;2.90;;;;;;;10.47;92.64;95591.88;5037997;28;20193;-83
2022/12/26 08:14:06;;;;;;;4.00;3.13;;;;;;;10.45;92.86;95596.41;5038381;28;20276;-83
2022/12/26 08:16:31;;;;;;;3.03;2.60;;;;;;;10.44;93.04;95588.75;5054607;28;20271;-83
2022/12/26 08:18:57;;;;;;;3.80;3.03;;;;;;;10.40;93.18;95598.59;5037930;28;20193;-83
2022/12/26 08:21:22;;;;;;;4.77;3.03;;;;;;;10.44;92.96;95605.16;5055817;28;20926;-82
2022/12/26 08:23:47;;;;;;;3.93;3.00;;;;;;;10.46;92.89;95613.59;5055496;28;20212;-82
2022/12/26 08:26:19;;;;;;;4.57;3.23;;;;;;;10.43;93.30;95619.09;5038273;28;20271;-83
2022/12/26 08:28:45;;;;;;;3.93;3.33;;;;;;;10.43;93.68;95624.28;5047445;28;20662;-83
2022/12/26 08:31:11;;;;;;;4.93;3.20;;;;;;;10.37;94.55;95637.84;5034184;28;20197;-83
2022/12/26 08:33:36;;;;;;;3.50;3.03;;;;;;;10.41;94.39;95646.97;5054026;28;20186;-82
2022/12/26 08:36:07;;;;;;;4.70;3.40;;;;;;;10.42;94.65;95669.38;5055276;28;20772;-83
2022/12/26 08:38:32;;;;;;;3.77;3.37;;;;;;;10.37;95.33;95666.38;5037616;28;20189;-83
2022/12/26 08:40:57;;;;;;;3.53;3.23;;;;;;;10.37;95.92;95668.97;5039064;28;20552;-83
2022/12/26 08:43:23;;;;;;;3.77;2.93;;;;;;;10.36;95.74;95677.75;5039718;28;20263;-83
2022/12/26 08:46:09;;;;;;;5.07;3.87;;;;;;;10.44;95.67;95687.41;5038868;28;20200;-83
2022/12/26 08:48:36;;;;;;;5.53;3.80;;;;;;;10.35;96.67;95683.88;5025646;28;20186;-83
2022/12/26 08:51:07;;;;;;;3.77;3.43;;;;;;;10.36;96.62;95689.91;5056174;28;20182;-82
2022/12/26 08:53:34;;;;;;;6.80;4.23;;;;;;;10.30;97.48;95687.88;5052940;28;20186;-82
2022/12/26 08:56:00;;;;;;;7.00;4.40;;;;;;;10.26;97.98;95689.13;5039642;28;20287;-82
2022/12/26 08:58:26;;;;;;;8.60;4.57;;;;;;;10.30;98.08;95680.91;5053404;28;20190;-82
2022/12/26 09:00:51;;;;;;;4.47;3.73;;;;;;;10.30;98.21;95677.47;5039592;28;20606;-82
2022/12/26 09:03:16;;;;;;;5.30;3.43;;;;;;;10.21;99.43;95681.72;5037839;28;20201;-83
2022/12/26 09:05:42;;;;;;;7.57;5.20;;;;;;;10.23;99.72;95689.38;5052560;28;20186;-82
2022/12/26 09:08:08;;;;;;;6.80;5.33;;;;;;;10.17;100.00;95691.56;5065932;28;20187;-86
2022/12/26 09:10:34;;;;;;;4.80;4.30;;;;;;;10.16;100.00;95696.91;5040497;28;20260;-83
2022/12/26 09:12:59;;;;;;;3.97;3.57;;;;;;;10.17;100.00;95709.75;5038611;28;20535;-83
2022/12/26 09:15:24;;;;;;;4.43;3.87;;;;;;;10.11;100.00;95704.28;5057117;28;20189;-83
2022/12/26 09:17:50;;;;;;;4.47;4.03;;;;;;;10.19;99.92;95697.44;5059181;28;20272;-83
2022/12/26 09:20:15;;;;;;;5.13;4.43;;;;;;;10.12;100.00;95701.53;5050838;28;20715;-86
2022/12/26 09:22:49;;;;;;;4.80;3.47;;;;;;;10.00;100.00;95709.66;5055257;28;20190;-83
2022/12/26 09:25:16;;;;;;;4.30;3.60;;;;;;;10.00;100.00;95710.47;5039865;28;20201;-83
2022/12/26 09:27:42;;;;;;;2.77;2.57;;;;;;;9.90;100.00;95701.88;5049544;28;20255;-82
2022/12/26 09:30:07;;;;;;;2.87;2.37;;;;;;;9.93;100.00;95717.97;5056280;28;20717;-82
2022/12/26 09:32:33;;;;;;;2.63;2.30;;;;;;;9.80;100.00;95733.00;5032957;28;20632;-82
2022/12/26 09:34:59;;;;;;;2.47;2.17;;;;;;;9.80;100.00;95732.19;5038346;28;20205;-83
2022/12/26 09:37:24;;;;;;;2.37;2.17;;;;;;;9.56;100.00;95737.81;5044966;28;20275;-82
2022/12/26 09:39:49;;;;;;;4.93;2.40;;;;;;;9.70;100.00;95745.16;5052699;28;20263;-83
2022/12/26 09:42:26;;;;;;;3.00;1.77;;;;;;;9.65;100.00;95763.75;5056195;28;20190;-82
2022/12/26 09:45:09;;;;;;;3.27;2.87;;;;;;;9.67;100.00;95761.00;5053594;28;20199;-81
2022/12/26 09:47:37;;;;;;;1.67;1.33;;;;;;;9.42;100.00;95751.97;5069119;28;20296;-81
2022/12/26 09:50:05;;;;;;;1.60;1.50;;;;;;;9.30;100.00;95768.63;5039792;28;20185;-80
2022/12/26 09:52:40;;;;;;;1.47;1.37;;;;;;;9.38;100.00;95773.13;5035249;28;20190;-81
2022/12/26 09:55:21;;;;;;;1.20;1.10;;;;;;;9.28;100.00;95762.75;5036687;28;20255;-81
2022/12/26 09:57:48;;;;;;;4.80;3.33;;;;;;;9.31;100.00;95747.75;5068032;28;20202;-81
2022/12/26 10:00:19;;;;;;;3.43;3.03;;;;;;;9.14;100.00;95748.41;5052330;28;20182;-81
2022/12/26 10:02:52;;;;;;;1.90;1.80;;;;;;;9.34;99.31;95742.28;5052477;28;20560;-81
2022/12/26 10:05:19;;;;;;;2.80;1.70;;;;;;;9.44;98.89;95739.69;5046234;28;20708;-82
2022/12/26 10:07:52;;;;;;;1.87;0.87;;;;;;;9.18;98.44;95749.75;5052335;28;20197;-82
2022/12/26 10:10:36;;;;;;;1.47;1.37;;;;;;;9.40;97.63;95735.75;5045446;28;20179;-82
2022/12/26 10:13:11;;;;;;;1.83;1.73;;;;;;;9.42;97.02;95740.78;5066043;28;20277;-82
2022/12/26 10:15:41;;;;;;;1.03;1.00;;;;;;;9.41;97.01;95747.75;5050461;28;20179;-81
2022/12/26 10:18:25;;;;;;;1.50;1.00;;;;;;;9.52;96.04;95741.63;5029431;28;20179;-82
2022/12/26 10:21:39;;;;;;;1.17;1.10;;;;;;;9.45;96.51;95738.75;5031795;28;20189;-82
2022/12/26 10:24:14;;;;;;;1.17;1.00;;;;;;;9.44;96.62;95749.25;5013318;28;20643;-82
2022/12/26 10:26:42;;;;;;;1.13;1.03;;;;;;;9.42;96.79;95756.34;5013016;28;20206;-82
2022/12/26 10:29:08;;;;;;;1.17;1.03;;;;;;;9.35;96.79;95749.09;4997332;28;20698;-81
2022/12/26 10:31:50;;;;;;;0.93;0.93;;;;;;;9.34;97.31;95754.44;5029661;28;20194;-82
2022/12/26 10:34:16;;;;;;;2.13;1.93;;;;;;;9.23;97.20;95759.75;5024370;28;20183;-81
2022/12/26 10:36:48;;;;;;;2.30;2.10;;;;;;;9.40;96.28;95753.91;4996071;28;20217;-81
2022/12/26 10:39:23;;;;;;;2.60;2.40;;;;;;;9.40;96.38;95768.63;5030334;28;20191;-81
2022/12/26 10:41:56;;;;;;;4.50;3.53;;;;;;;9.39;96.75;95765.22;5013548;28;20194;-82
2022/12/26 10:44:21;;;;;;;10.33;6.20;;;;;;;9.31;97.41;95767.66;5014142;28;20222;-82
2022/12/26 10:47:06;;;;;;;2.60;1.30;;;;;;;9.32;97.55;95762.34;5028794;28;20376;-82
2022/12/26 10:49:32;;;;;;;1.50;1.07;;;;;;;9.28;98.08;95760.16;5025323;28;20202;-82
2022/12/26 10:51:58;;;;;;;0.90;0.90;;;;;;;9.15;97.49;95754.41;5014276;28;20201;-83
2022/12/26 10:54:26;;;;;;;1.37;1.23;;;;;;;9.31;97.43;95765.06;5013969;28;20249;-81
2022/12/26 10:56:52;;;;;;;2.57;1.57;;;;;;;9.26;98.09;95762.06;5015729;28;20305;-81
2022/12/26 10:59:21;;;;;;;1.10;0.70;;;;;;;9.06;98.25;95751.66;5014607;28;20206;-81
2022/12/26 11:01:47;;;;;;;0.83;0.80;;;;;;;9.26;97.67;95749.09;5043494;28;20661;-81
2022/12/26 11:04:23;;;;;;;1.33;0.90;;;;;;;9.01;98.81;95753.00;5035783;28;20218;-81
2022/12/26 11:06:52;;;;;;;1.03;0.83;;;;;;;9.19;98.32;95745.41;5034049;28;20262;-81
2022/12/26 11:09:42;;;;;;;0.53;0.53;;;;;;;9.14;98.40;95737.22;5032101;28;20260;-83
2022/12/26 11:12:31;;;;;;;1.00;1.00;;;;;;;9.02;97.39;95731.34;5067216;28;20277;-82
2022/12/26 11:14:59;;;;;;;0.53;0.53;;;;;;;9.12;97.04;95715.81;5034197;28;20530;-82
2022/12/26 11:17:28;;;;;;;0.87;0.80;;;;;;;9.36;96.23;95714.47;5051272;28;20252;-81
2022/12/26 11:20:20;;;;;;;1.27;1.17;;;;;;;9.28;95.73;95716.13;5044047;28;20193;-82
2022/12/26 11:22:45;;;;;;;1.00;0.97;;;;;;;9.46;94.55;95716.25;5050333;28;20182;-82
2022/12/26 11:25:18;;;;;;;1.40;1.30;;;;;;;9.25;96.65;95727.56;5047159;28;21046;-82
2022/12/26 11:27:46;;;;;;;3.30;1.30;;;;;;;9.34;96.08;95729.31;5040844;28;20793;-82
2022/12/26 11:30:25;;;;;;;8.90;3.77;;;;;;;9.32;96.59;95733.84;5036249;28;20277;-82
2022/12/26 11:33:08;;;;;;;5.77;4.37;;;;;;;9.26;94.77;95734.38;5050516;28;20193;-80
2022/12/26 11:35:36;;;;;;;3.30;3.00;;;;;;;9.23;95.74;95747.59;5053067;28;20296;-82
2022/12/26 11:38:03;;;;;;;5.03;4.63;;;;;;;8.80;96.47;95733.19;5051343;28;20292;-81
2022/12/26 11:40:32;;;;;;;2.70;2.50;;;;;;;9.05;95.93;95731.06;5037443;28;20187;-81
2022/12/26 11:42:59;;;;;;;2.47;2.27;;;;;;;8.78;97.51;95749.81;5050318;28;20323;-82
2022/12/26 11:45:29;;;;;;;2.33;1.60;;;;;;;9.02;96.42;95739.13;5033326;28;20206;-80
2022/12/26 11:47:56;;;;;;;2.90;1.40;;;;;;;9.05;96.53;95742.25;5027723;28;20216;-83
2022/12/26 11:50:25;;;;;;;4.43;2.90;;;;;;;9.14;95.53;95730.28;5046511;28;20214;-81
2022/12/26 11:53:04;;;;;;;1.40;1.13;;;;;;;9.16;94.68;95712.81;5041940;28;20217;-82
2022/12/26 11:55:37;;;;;;;1.23;0.90;;;;;;;9.36;93.60;95708.44;5051054;28;20559;-80
2022/12/26 11:58:09;;;;;;;5.27;2.87;;;;;;;9.20;92.88;95696.06;5051616;28;20216;-81
2022/12/26 12:01:06;;;;;;;8.50;3.57;;;;;;;9.44;92.36;95700.81;5058380;28;20194;-82
2022/12/26 12:03:38;;;;;;;9.50;5.13;;;;;;;9.55;91.22;95708.47;5048385;28;20218;-83
2022/12/26 12:06:34;;;;;;;9.37;5.40;;;;;;;9.60;90.66;95705.47;5065520;28;20206;-81
2022/12/26 12:09:05;;;;;;;9.83;4.93;;;;;;;9.40;90.05;95696.06;5056674;28;20191;-81
2022/12/26 12:11:57;;;;;;;5.73;3.07;;;;;;;9.45;89.90;95701.63;5051550;28;20185;-81
2022/12/26 12:14:50;;;;;;;4.03;2.90;;;;;;;9.57;89.66;95716.13;5046839;28;20174;-83
2022/12/26 12:17:40;;;;;;;3.90;3.50;;;;;;;9.41;90.58;95719.25;5053031;28;20218;-81
2022/12/26 12:20:16;;;;;;;6.60;4.87;;;;;;;9.51;90.37;95717.47;5056477;28;20239;-82
2022/12/26 12:23:08;;;;;;;4.53;2.67;;;;;;;9.54;89.91;95714.63;5048877;28;20219;-82
2022/12/26 12:25:37;;;;;;;4.00;3.50;;;;;;;9.51;90.01;95714.06;5050369;28;20658;-81
2022/12/26 12:28:44;;;;;;;0.80;0.80;;;;;;;9.11;90.80;95722.78;5033431;28;20205;-81
2022/12/26 12:31:28;;;;;;;1.50;1.40;;;;;;;9.33;90.06;95722.50;5005236;28;20194;-83
2022/12/26 12:34:04;;;;;;;1.63;1.10;;;;;;;9.32;91.08;95714.88;5045273;28;20265;-82
2022/12/26 12:36:35;;;;;;;0.80;0.80;;;;;;;9.18;90.97;95708.31;5026725;28;20201;-81
2022/12/26 12:39:01;;;;;;;1.33;1.10;;;;;;;9.44;90.53;95700.81;5036131;28;20219;-83
2022/12/26 12:41:55;;;;;;;2.03;1.87;;;;;;;9.29;90.09;95697.84;5058265;28;20201;-82
2022/12/26 12:44:27;;;;;;;1.10;1.00;;;;;;;9.58;89.84;95691.81;5031599;28;20213;-84
2022/12/26 12:47:10;;;;;;;2.30;1.40;;;;;;;9.51;90.34;95704.50;5031188;28;20583;-84
2022/12/26 12:49:56;;;;;;;1.70;1.30;;;;;;;9.63;90.29;95697.41;5046763;28;20220;-85
2022/12/26 12:52:37;;;;;;;1.33;1.07;;;;;;;9.68;89.21;95704.78;5051053;28;20190;-86
2022/12/26 12:55:30;;;;;;;1.63;1.30;;;;;;;9.67;89.51;95695.34;5037779;28;20192;-81
2022/12/26 12:58:03;;;;;;;1.20;1.10;;;;;;;9.60;89.85;95708.03;5058034;28;20225;-80
2022/12/26 13:00:38;;;;;;;1.20;0.97;;;;;;;9.60;89.85;95703.69;5040610;28;20188;-80
2022/12/26 13:03:14;;;;;;;0.80;0.80;;;;;;;9.55;89.42;95697.28;5056103;28;20196;-80
2022/12/26 13:06:10;;;;;;;1.60;1.50;;;;;;;9.50;89.86;95692.50;5038872;28;20192;-81
2022/12/26 13:08:38;;;;;;;2.20;1.83;;;;;;;9.61;90.14;95691.53;5040519;28;20186;-81
2022/12/26 13:11:08;;;;;;;1.07;0.90;;;;;;;9.82;89.03;95684.41;5055690;28;20186;-80
2022/12/26 13:13:45;;;;;;;1.20;1.20;;;;;;;9.83;88.97;95693.84;5055959;28;20213;-81
2022/12/26 13:16:16;;;;;;;0.80;0.80;;;;;;;9.73;88.76;95677.47;5039082;28;20263;-81
2022/12/26 13:19:03;;;;;;;1.83;1.10;;;;;;;9.69;89.30;95685.66;5048783;28;20201;-80
2022/12/26 13:21:31;;;;;;;1.40;1.30;;;;;;;9.79;89.43;95676.91;5040449;28;20249;-83
2022/12/26 13:24:24;;;;;;;1.60;1.50;;;;;;;9.82;88.86;95668.03;5038778;28;20205;-81
2022/12/26 13:26:57;;;;;;;1.20;1.10;;;;;;;9.72;89.18;95682.78;5067057;28;20550;-82
2022/12/26 13:29:32;;;;;;;1.53;0.87;;;;;;;9.61;88.90;95689.75;5036281;28;20196;-81
2022/12/26 13:31:59;;;;;;;1.43;1.33;;;;;;;9.71;88.48;95694.94;5053629;28;20249;-82
2022/12/26 13:34:24;;;;;;;1.23;0.90;;;;;;;9.92;87.10;95687.81;5056131;28;20190;-81
2022/12/26 13:36:52;;;;;;;1.27;1.10;;;;;;;10.03;87.34;95673.84;5041268;28;20221;-81
2022/12/26 13:39:26;;;;;;;1.00;0.93;;;;;;;9.81;87.47;95675.00;5041738;28;20185;-81
2022/12/26 13:44:49;;;;;;;1.30;1.20;;;;;;;9.69;87.78;95668.31;5055133;28;20217;-81
2022/12/26 13:47:33;;;;;;;1.30;1.20;;;;;;;9.95;86.98;95668.53;5039208;28;20273;-82
2022/12/26 13:50:37;;;;;;;2.10;1.30;;;;;;;9.81;87.52;95669.00;5034907;28;20649;-81
2022/12/26 13:53:02;;;;;;;1.20;1.10;;;;;;;9.91;87.38;95670.63;5053436;28;20609;-81
2022/12/26 13:55:31;;;;;;;1.13;1.03;;;;;;;10.04;86.86;95669.47;5053854;28;20222;-84
2022/12/26 13:58:14;;;;;;;1.27;1.00;;;;;;;9.81;86.86;95675.00;5053905;28;20213;-80